createdAt,value
2023-05-18T00:00:03.006Z,78.20
2023-05-18T00:01:03.011Z,77.50
2023-05-18T00:02:02.993Z,71.50
2023-05-18T00:03:03.045Z,74.20
2023-05-18T00:04:03.051Z,71.40
2023-05-18T00:05:02.995Z,75.30
2023-05-18T00:06:02.990Z,73.30
2023-05-18T00:07:02.978Z,67.20
2023-05-18T00:08:03.057Z,71.60
2023-05-18T00:09:02.967Z,71.90
2023-05-18T00:10:03.174Z,64.60
2023-05-18T00:11:02.996Z,64.40
2023-05-18T00:12:02.964Z,67.90
2023-05-18T00:13:02.954Z,59.90
2023-05-18T00:14:02.956Z,72.40
2023-05-18T00:15:02.954Z,74.20
2023-05-18T00:16:02.987Z,64.70
2023-05-18T00:17:02.942Z,7.70
2023-05-18T00:18:02.991Z,5.60
2023-05-18T00:19:03.002Z,49.70
2023-05-18T00:20:02.939Z,61.30
2023-05-18T00:21:02.919Z,53.10
2023-05-18T00:22:02.923Z,53.00
2023-05-18T00:23:02.935Z,54.60
2023-05-18T00:24:02.915Z,46.50
2023-05-18T00:25:02.937Z,52.50
2023-05-18T00:26:02.909Z,52.80
2023-05-18T00:27:02.926Z,50.90
2023-05-18T00:28:02.898Z,53.80
2023-05-18T00:29:02.893Z,49.90
2023-05-18T00:30:02.894Z,58.90
2023-05-18T00:31:02.886Z,66.80
2023-05-18T00:32:02.943Z,63.80
2023-05-18T00:33:02.984Z,47.30
2023-05-18T00:34:02.880Z,46.80
2023-05-18T00:35:02.892Z,53.60
2023-05-18T00:36:02.882Z,52.70
2023-05-18T00:37:02.869Z,49.00
2023-05-18T00:38:02.867Z,54.80
2023-05-18T00:39:02.872Z,63.00
2023-05-18T00:40:02.872Z,44.70
2023-05-18T00:41:02.861Z,49.20
2023-05-18T00:42:02.853Z,8.30
2023-05-18T00:43:02.936Z,29.40
2023-05-18T00:44:02.849Z,45.00
2023-05-18T00:45:02.841Z,42.90
2023-05-18T00:46:02.888Z,42.30
2023-05-18T00:47:02.834Z,37.40
2023-05-18T00:48:02.877Z,59.00
2023-05-18T00:49:02.831Z,48.70
2023-05-18T00:50:02.821Z,50.30
2023-05-18T00:51:02.822Z,49.80
2023-05-18T00:52:02.819Z,62.70
2023-05-18T00:53:02.815Z,48.60
2023-05-18T00:54:02.812Z,54.20
2023-05-18T00:55:02.809Z,50.40
2023-05-18T00:56:02.804Z,41.60
2023-05-18T00:57:02.796Z,12.20
2023-05-18T00:58:02.798Z,8.80
2023-05-18T00:59:02.805Z,43.40
2023-05-18T01:00:02.790Z,56.70
2023-05-18T01:01:02.857Z,46.70
2023-05-18T01:02:02.826Z,44.20
2023-05-18T01:03:02.910Z,51.20
2023-05-18T01:04:02.773Z,36.60
2023-05-18T01:05:02.765Z,46.80
2023-05-18T01:06:02.770Z,46.80
2023-05-18T01:07:02.758Z,48.30
2023-05-18T01:08:02.757Z,64.50
2023-05-18T01:09:02.770Z,41.10
2023-05-18T01:10:02.752Z,39.40
2023-05-18T01:11:02.767Z,40.60
2023-05-18T01:12:02.751Z,53.30
2023-05-18T01:13:02.739Z,43.20
2023-05-18T01:14:02.733Z,53.50
2023-05-18T01:15:02.997Z,57.20
2023-05-18T01:16:02.722Z,37.50
2023-05-18T01:17:02.781Z,44.10
2023-05-18T01:18:02.777Z,44.90
2023-05-18T01:19:02.726Z,54.10
2023-05-18T01:20:02.757Z,44.70
2023-05-18T01:21:02.700Z,44.30
2023-05-18T01:22:02.700Z,50.70
2023-05-18T01:23:02.710Z,45.80
2023-05-18T01:24:02.698Z,41.10
2023-05-18T01:25:02.692Z,57.00
2023-05-18T01:26:02.688Z,59.50
2023-05-18T01:27:02.688Z,44.10
2023-05-18T01:28:02.682Z,59.00
2023-05-18T01:29:02.700Z,53.50
2023-05-18T01:30:02.672Z,49.20
2023-05-18T01:31:02.699Z,50.90
2023-05-18T01:32:02.661Z,52.60
2023-05-18T01:33:02.809Z,53.00
2023-05-18T01:34:02.657Z,51.50
2023-05-18T01:35:02.651Z,55.00
2023-05-18T01:36:02.670Z,44.00
2023-05-18T01:37:02.646Z,55.20
2023-05-18T01:38:02.650Z,59.60
2023-05-18T01:39:02.691Z,49.40
2023-05-18T01:40:02.641Z,57.10
2023-05-18T01:41:02.627Z,64.50
2023-05-18T01:42:02.628Z,57.30
2023-05-18T01:43:02.662Z,53.20
2023-05-18T01:44:02.642Z,55.30
2023-05-18T01:45:02.607Z,8.20
2023-05-18T01:46:02.734Z,6.80
2023-05-18T01:47:02.635Z,59.20
2023-05-18T01:48:02.638Z,47.20
2023-05-18T01:49:02.598Z,35.90
2023-05-18T01:50:02.603Z,37.60
2023-05-18T01:51:02.588Z,30.40
2023-05-18T01:52:02.585Z,50.40
2023-05-18T01:53:02.577Z,39.10
2023-05-18T01:54:02.581Z,47.00
2023-05-18T01:55:02.573Z,50.00
2023-05-18T01:56:02.570Z,48.30
2023-05-18T01:57:02.576Z,53.40
2023-05-18T01:58:02.559Z,56.40
2023-05-18T01:59:02.572Z,53.80
2023-05-18T02:00:02.556Z,48.20
2023-05-18T02:01:02.552Z,53.80
2023-05-18T02:02:02.591Z,6.70
2023-05-18T02:03:02.679Z,7.80
2023-05-18T02:04:02.676Z,57.90
2023-05-18T02:05:02.550Z,56.80
2023-05-18T02:06:02.540Z,45.40
2023-05-18T02:07:02.528Z,34.70
2023-05-18T02:08:02.522Z,38.60
2023-05-18T02:09:02.522Z,39.20
2023-05-18T02:10:02.517Z,45.50
2023-05-18T02:11:02.507Z,47.00
2023-05-18T02:12:02.508Z,48.70
2023-05-18T02:13:02.501Z,53.10
2023-05-18T02:14:02.493Z,44.10
2023-05-18T02:15:02.692Z,44.40
2023-05-18T02:16:02.526Z,37.90
2023-05-18T02:17:02.494Z,46.00
2023-05-18T02:18:02.495Z,48.70
2023-05-18T02:19:02.545Z,48.60
2023-05-18T02:20:02.483Z,52.30
2023-05-18T02:21:02.476Z,45.50
2023-05-18T02:22:02.461Z,53.00
2023-05-18T02:23:02.467Z,58.40
2023-05-18T02:24:02.454Z,35.40
2023-05-18T02:25:02.455Z,45.20
2023-05-18T02:26:02.461Z,47.70
2023-05-18T02:27:02.443Z,60.20
2023-05-18T02:28:02.441Z,51.00
2023-05-18T02:29:02.438Z,42.50
2023-05-18T02:30:02.434Z,56.60
2023-05-18T02:31:02.430Z,55.70
2023-05-18T02:32:02.482Z,42.90
2023-05-18T02:33:02.454Z,38.60
2023-05-18T02:34:02.416Z,50.30
2023-05-18T02:35:02.446Z,54.30
2023-05-18T02:36:02.408Z,54.40
2023-05-18T02:37:02.406Z,44.00
2023-05-18T02:38:02.399Z,47.50
2023-05-18T02:39:02.401Z,31.10
2023-05-18T02:40:02.395Z,37.10
2023-05-18T02:41:02.382Z,55.40
2023-05-18T02:42:02.384Z,45.60
2023-05-18T02:43:02.376Z,56.20
2023-05-18T02:44:02.374Z,57.10
2023-05-18T02:45:02.367Z,65.70
2023-05-18T02:46:02.459Z,53.80
2023-05-18T02:47:02.370Z,38.20
2023-05-18T02:48:02.394Z,47.10
2023-05-18T02:49:02.354Z,40.70
2023-05-18T02:50:02.378Z,62.00
2023-05-18T02:51:02.369Z,38.70
2023-05-18T02:52:02.344Z,34.70
2023-05-18T02:53:02.340Z,42.40
2023-05-18T02:54:02.337Z,47.90
2023-05-18T02:55:02.332Z,51.20
2023-05-18T02:56:02.351Z,44.40
2023-05-18T02:57:02.330Z,41.40
2023-05-18T02:58:02.373Z,56.30
2023-05-18T02:59:02.333Z,28.90
2023-05-18T03:00:02.335Z,48.10
2023-05-18T03:01:02.349Z,48.60
2023-05-18T03:02:02.352Z,35.60
2023-05-18T03:03:02.404Z,52.90
2023-05-18T03:04:02.314Z,44.20
2023-05-18T03:05:02.291Z,54.40
2023-05-18T03:06:02.288Z,54.10
2023-05-18T03:07:02.308Z,52.00
2023-05-18T03:08:02.288Z,41.00
2023-05-18T03:09:02.282Z,8.50
2023-05-18T03:10:02.276Z,10.50
2023-05-18T03:11:02.276Z,45.90
2023-05-18T03:12:02.267Z,25.60
2023-05-18T03:13:02.263Z,29.60
2023-05-18T03:14:02.263Z,36.00
2023-05-18T03:15:02.505Z,44.10
2023-05-18T03:16:02.269Z,37.10
2023-05-18T03:17:02.380Z,41.00
2023-05-18T03:18:02.335Z,27.40
2023-05-18T03:19:02.379Z,55.30
2023-05-18T03:20:02.240Z,44.70
2023-05-18T03:21:02.386Z,37.30
2023-05-18T03:22:02.240Z,31.70
2023-05-18T03:23:02.254Z,60.00
2023-05-18T03:24:02.221Z,25.70
2023-05-18T03:25:02.214Z,8.80
2023-05-18T03:26:02.217Z,8.00
2023-05-18T03:27:02.209Z,23.30
2023-05-18T03:28:02.212Z,79.80
2023-05-18T03:29:02.240Z,9.50
2023-05-18T03:30:02.195Z,22.40
2023-05-18T03:31:02.214Z,24.40
2023-05-18T03:32:02.193Z,27.40
2023-05-18T03:33:02.236Z,26.50
2023-05-18T03:34:02.205Z,29.40
2023-05-18T03:35:02.184Z,18.20
2023-05-18T03:36:02.173Z,9.00
2023-05-18T03:37:02.181Z,10.30
2023-05-18T03:38:02.164Z,25.00
2023-05-18T03:39:02.393Z,13.60
2023-05-18T03:40:02.158Z,17.00
2023-05-18T03:41:02.161Z,11.90
2023-05-18T03:42:02.152Z,9.40
2023-05-18T03:43:02.165Z,10.00
2023-05-18T03:44:02.145Z,26.40
2023-05-18T03:45:02.135Z,15.80
2023-05-18T03:46:02.184Z,19.30
2023-05-18T03:47:02.132Z,11.80
2023-05-18T03:48:02.149Z,14.40
2023-05-18T03:49:02.131Z,10.10
2023-05-18T03:50:02.117Z,13.20
2023-05-18T03:51:02.116Z,10.90
2023-05-18T03:52:02.121Z,10.80
2023-05-18T03:53:02.121Z,19.60
2023-05-18T03:54:02.102Z,20.10
2023-05-18T03:55:02.124Z,30.90
2023-05-18T03:56:02.109Z,27.50
2023-05-18T03:57:02.091Z,29.90
2023-05-18T03:58:02.086Z,29.00
2023-05-18T03:59:02.099Z,31.40
2023-05-18T04:00:02.099Z,32.90
2023-05-18T04:01:02.077Z,29.40
2023-05-18T04:02:02.104Z,32.30
2023-05-18T04:03:02.133Z,26.60
2023-05-18T04:04:02.107Z,34.90
2023-05-18T04:05:02.065Z,32.10
2023-05-18T04:06:02.064Z,35.50
2023-05-18T04:07:02.059Z,10.20
2023-05-18T04:08:02.057Z,9.40
2023-05-18T04:09:02.053Z,20.60
2023-05-18T04:10:02.042Z,20.10
2023-05-18T04:11:02.062Z,16.90
2023-05-18T04:12:02.024Z,9.60
2023-05-18T04:13:02.024Z,17.90
2023-05-18T04:14:02.018Z,9.60
2023-05-18T04:15:02.013Z,9.90
2023-05-18T04:16:02.041Z,12.40
2023-05-18T04:17:02.007Z,10.30
2023-05-18T04:18:02.079Z,17.20
2023-05-18T04:19:02.051Z,10.50
2023-05-18T04:20:02.450Z,28.00
2023-05-18T04:21:01.992Z,15.40
2023-05-18T04:22:01.985Z,10.80
2023-05-18T04:23:01.996Z,45.20
2023-05-18T04:24:01.981Z,10.30
2023-05-18T04:25:01.976Z,45.90
2023-05-18T04:26:01.977Z,24.70
2023-05-18T04:27:01.999Z,28.10
2023-05-18T04:28:01.965Z,25.00
2023-05-18T04:29:01.958Z,29.10
2023-05-18T04:30:01.952Z,29.70
2023-05-18T04:31:01.950Z,26.50
2023-05-18T04:32:02.005Z,28.80
2023-05-18T04:33:02.007Z,27.90
2023-05-18T04:34:01.940Z,10.70
2023-05-18T04:35:01.939Z,11.50
2023-05-18T04:36:01.934Z,13.40
2023-05-18T04:37:01.936Z,14.70
2023-05-18T04:38:01.922Z,11.10
2023-05-18T04:39:01.929Z,11.20
2023-05-18T04:40:01.936Z,11.10
2023-05-18T04:41:01.915Z,12.30
2023-05-18T04:42:01.921Z,13.50
2023-05-18T04:43:02.002Z,12.60
2023-05-18T04:44:01.906Z,13.60
2023-05-18T04:45:01.896Z,12.20
2023-05-18T04:46:01.920Z,11.50
2023-05-18T04:47:01.894Z,13.30
2023-05-18T04:48:01.974Z,11.80
2023-05-18T04:49:01.882Z,12.80
2023-05-18T04:50:01.873Z,12.10
2023-05-18T04:51:01.870Z,13.50
2023-05-18T04:52:01.869Z,12.40
2023-05-18T04:53:01.864Z,11.20
2023-05-18T04:54:01.856Z,12.20
2023-05-18T04:55:01.862Z,12.10
2023-05-18T04:56:01.851Z,11.90
2023-05-18T04:57:01.847Z,13.30
2023-05-18T04:58:01.843Z,12.30
2023-05-18T04:59:01.863Z,12.40
2023-05-18T05:00:01.850Z,12.00
2023-05-18T05:01:01.845Z,13.50
2023-05-18T05:02:01.819Z,10.90
2023-05-18T05:03:01.875Z,11.50
2023-05-18T05:04:01.833Z,9.20
2023-05-18T05:05:01.832Z,10.90
2023-05-18T05:06:01.809Z,9.00
2023-05-18T05:07:01.802Z,10.00
2023-05-18T05:08:01.796Z,10.10
2023-05-18T05:09:01.795Z,11.00
2023-05-18T05:10:01.790Z,9.10
2023-05-18T05:11:01.790Z,10.00
2023-05-18T05:12:01.777Z,9.40
2023-05-18T05:13:01.775Z,8.10
2023-05-18T05:14:01.779Z,9.80
2023-05-18T05:15:01.788Z,10.90
2023-05-18T05:16:01.879Z,10.30
2023-05-18T05:17:01.761Z,9.70
2023-05-18T05:18:01.771Z,9.50
2023-05-18T05:19:01.847Z,10.60
2023-05-18T05:20:01.749Z,10.00
2023-05-18T05:21:01.743Z,9.70
2023-05-18T05:22:01.732Z,9.70
2023-05-18T05:23:01.837Z,8.10
2023-05-18T05:24:01.799Z,9.20
2023-05-18T05:25:02.899Z,9.50
2023-05-18T05:26:01.720Z,9.30
2023-05-18T05:27:01.724Z,10.40
2023-05-18T05:28:01.723Z,9.10
2023-05-18T05:29:01.717Z,9.40
2023-05-18T05:30:01.711Z,11.90
2023-05-18T05:31:01.770Z,9.80
2023-05-18T05:32:01.761Z,11.10
2023-05-18T05:33:01.739Z,9.30
2023-05-18T05:34:01.687Z,11.00
2023-05-18T05:35:01.692Z,9.90
2023-05-18T05:36:01.692Z,10.50
2023-05-18T05:37:01.683Z,9.30
2023-05-18T05:38:01.686Z,12.30
2023-05-18T05:39:01.672Z,9.80
2023-05-18T05:40:01.671Z,9.70
2023-05-18T05:41:01.681Z,11.00
2023-05-18T05:42:01.670Z,10.90
2023-05-18T05:43:01.655Z,9.50
2023-05-18T05:44:01.727Z,10.90
2023-05-18T05:45:01.696Z,10.30
2023-05-18T05:46:01.640Z,10.50
2023-05-18T05:47:01.754Z,9.60
2023-05-18T05:48:01.661Z,9.70
2023-05-18T05:49:01.642Z,9.00
2023-05-18T05:50:01.664Z,8.30
2023-05-18T05:51:01.628Z,9.40
2023-05-18T05:52:01.618Z,9.50
2023-05-18T05:53:01.668Z,9.40
2023-05-18T05:54:01.617Z,9.50
2023-05-18T05:55:01.607Z,10.40
2023-05-18T05:56:01.609Z,9.70
2023-05-18T05:57:01.597Z,9.40
2023-05-18T05:58:01.589Z,9.50
2023-05-18T05:59:01.592Z,10.00
2023-05-18T06:00:01.703Z,10.90
2023-05-18T06:01:01.589Z,9.40
2023-05-18T06:02:01.627Z,9.70
2023-05-18T06:03:01.657Z,8.30
2023-05-18T06:04:01.726Z,10.50
2023-05-18T06:05:01.582Z,10.80
2023-05-18T06:06:01.569Z,7.80
2023-05-18T06:07:01.562Z,9.60
2023-05-18T06:08:01.557Z,10.70
2023-05-18T06:09:01.550Z,9.00
2023-05-18T06:10:01.545Z,7.70
2023-05-18T06:11:01.540Z,12.10
2023-05-18T06:12:01.537Z,8.80
2023-05-18T06:13:01.540Z,9.20
2023-05-18T06:14:01.526Z,8.60
2023-05-18T06:15:01.534Z,9.70
2023-05-18T06:16:01.549Z,9.10
2023-05-18T06:17:01.539Z,10.60
2023-05-18T06:18:01.565Z,9.50
2023-05-18T06:19:01.591Z,10.00
2023-05-18T06:20:01.517Z,11.50
2023-05-18T06:21:01.520Z,11.00
2023-05-18T06:22:01.499Z,10.10
2023-05-18T06:23:01.498Z,11.70
2023-05-18T06:24:01.498Z,9.30
2023-05-18T06:25:01.493Z,10.50
2023-05-18T06:26:01.484Z,10.40
2023-05-18T06:27:01.484Z,11.80
2023-05-18T06:28:01.483Z,9.80
2023-05-18T06:29:01.477Z,9.60
2023-05-18T06:30:01.892Z,11.10
2023-05-18T06:31:01.470Z,11.00
2023-05-18T06:32:01.510Z,8.40
2023-05-18T06:33:01.521Z,9.80
2023-05-18T06:34:01.457Z,8.80
2023-05-18T06:35:01.472Z,9.60
2023-05-18T06:36:01.449Z,10.40
2023-05-18T06:37:01.447Z,9.50
2023-05-18T06:38:01.445Z,8.00
2023-05-18T06:39:01.440Z,9.90
2023-05-18T06:40:01.457Z,9.90
2023-05-18T06:41:01.437Z,9.20
2023-05-18T06:42:01.470Z,10.20
2023-05-18T06:43:01.428Z,7.60
2023-05-18T06:44:01.424Z,9.70
2023-05-18T06:45:01.422Z,10.10
2023-05-18T06:46:01.419Z,10.30
2023-05-18T06:47:01.414Z,10.80
2023-05-18T06:48:01.456Z,9.70
2023-05-18T06:49:01.421Z,10.80
2023-05-18T06:50:01.407Z,8.50
2023-05-18T06:51:01.420Z,9.60
2023-05-18T06:52:01.401Z,8.90
2023-05-18T06:53:01.395Z,8.50
2023-05-18T06:54:01.386Z,7.90
2023-05-18T06:55:01.407Z,12.40
2023-05-18T06:56:01.378Z,11.50
2023-05-18T06:57:01.376Z,9.00
2023-05-18T06:58:01.377Z,11.40
2023-05-18T06:59:01.373Z,9.40
2023-05-18T07:00:01.371Z,8.60
2023-05-18T07:01:01.421Z,9.90
2023-05-18T07:02:01.452Z,8.20
2023-05-18T07:03:01.481Z,7.80
2023-05-18T07:04:01.409Z,8.10
2023-05-18T07:05:01.347Z,9.60
2023-05-18T07:06:01.341Z,8.80
2023-05-18T07:07:01.374Z,8.90
2023-05-18T07:08:01.381Z,8.60
2023-05-18T07:09:01.341Z,10.20
2023-05-18T07:10:01.333Z,10.10
2023-05-18T07:11:01.334Z,9.50
2023-05-18T07:12:01.337Z,10.00
2023-05-18T07:13:01.324Z,9.10
2023-05-18T07:14:01.315Z,9.70
2023-05-18T07:15:01.319Z,8.20
2023-05-18T07:16:01.377Z,8.90
2023-05-18T07:17:01.314Z,8.20
2023-05-18T07:18:01.360Z,9.50
2023-05-18T07:19:01.406Z,9.00
2023-05-18T07:20:01.321Z,9.00
2023-05-18T07:21:01.295Z,8.70
2023-05-18T07:22:01.285Z,8.60
2023-05-18T07:23:01.331Z,8.00
2023-05-18T07:24:01.291Z,9.00
2023-05-18T07:25:01.284Z,9.30
2023-05-18T07:26:01.292Z,9.20
2023-05-18T07:27:01.294Z,7.70
2023-05-18T07:28:01.268Z,7.70
2023-05-18T07:29:01.268Z,8.70
2023-05-18T07:30:01.634Z,8.20
2023-05-18T07:31:01.314Z,8.00
2023-05-18T07:32:01.326Z,7.50
2023-05-18T07:33:01.310Z,9.20
2023-05-18T07:34:01.253Z,8.50
2023-05-18T07:35:01.262Z,8.30
2023-05-18T07:36:01.239Z,8.50
2023-05-18T07:37:01.241Z,9.40
2023-05-18T07:38:01.245Z,7.80
2023-05-18T07:39:01.258Z,7.90
2023-05-18T07:40:01.236Z,8.90
2023-05-18T07:41:01.231Z,7.90
2023-05-18T07:42:01.222Z,8.70
2023-05-18T07:43:01.245Z,7.80
2023-05-18T07:44:01.215Z,8.30
2023-05-18T07:45:01.211Z,9.00
2023-05-18T07:46:01.208Z,8.40
2023-05-18T07:47:01.592Z,8.10
2023-05-18T07:48:01.290Z,8.10
2023-05-18T07:49:01.209Z,7.80
2023-05-18T07:50:01.226Z,9.20
2023-05-18T07:51:01.194Z,9.80
2023-05-18T07:52:01.193Z,8.60
2023-05-18T07:53:01.191Z,9.60
2023-05-18T07:54:01.196Z,9.80
2023-05-18T07:55:01.295Z,8.70
2023-05-18T07:56:01.203Z,7.40
2023-05-18T07:57:01.172Z,8.10
2023-05-18T07:58:01.187Z,8.80
2023-05-18T07:59:01.169Z,9.60
2023-05-18T08:00:01.172Z,8.00
2023-05-18T08:01:01.161Z,9.00
2023-05-18T08:02:01.186Z,8.90
2023-05-18T08:03:01.349Z,10.10
2023-05-18T08:04:01.207Z,7.90
2023-05-18T08:05:01.150Z,7.80
2023-05-18T08:06:01.156Z,7.60
2023-05-18T08:07:01.216Z,8.30
2023-05-18T08:08:01.138Z,7.70
2023-05-18T08:09:01.137Z,10.10
2023-05-18T08:10:01.135Z,8.80
2023-05-18T08:11:01.158Z,8.00
2023-05-18T08:12:01.129Z,7.30
2023-05-18T08:13:01.138Z,9.10
2023-05-18T08:14:01.128Z,7.80
2023-05-18T08:15:01.340Z,7.70
2023-05-18T08:16:11.286Z,8.20
2023-05-18T08:17:01.151Z,8.10
2023-05-18T08:18:01.112Z,8.30
2023-05-18T08:19:01.194Z,7.90
2023-05-18T08:20:01.128Z,7.00
2023-05-18T08:21:01.112Z,7.00
2023-05-18T08:22:01.096Z,8.20
2023-05-18T08:23:01.102Z,9.70
2023-05-18T08:24:01.094Z,8.80
2023-05-18T08:25:01.096Z,8.30
2023-05-18T08:26:01.093Z,9.90
2023-05-18T08:27:01.129Z,8.40
2023-05-18T08:28:01.103Z,8.90
2023-05-18T08:29:01.097Z,8.30
2023-05-18T08:30:01.079Z,9.20
2023-05-18T08:31:01.131Z,8.60
2023-05-18T08:32:01.115Z,6.80
2023-05-18T08:33:01.104Z,7.60
2023-05-18T08:34:01.072Z,8.60
2023-05-18T08:35:01.065Z,9.10
2023-05-18T08:36:01.064Z,8.90
2023-05-18T08:37:01.055Z,8.00
2023-05-18T08:38:01.351Z,7.10
2023-05-18T08:39:01.047Z,9.60
2023-05-18T08:40:01.046Z,7.50
2023-05-18T08:41:01.067Z,8.50
2023-05-18T08:42:01.059Z,7.50
2023-05-18T08:43:01.074Z,7.60
2023-05-18T08:44:01.040Z,8.40
2023-05-18T08:45:01.034Z,8.00
2023-05-18T08:46:01.035Z,7.70
2023-05-18T08:47:01.027Z,7.50
2023-05-18T08:48:01.113Z,8.60
2023-05-18T08:49:01.026Z,8.00
2023-05-18T08:50:01.023Z,8.00
2023-05-18T08:51:01.029Z,8.80
2023-05-18T08:52:01.029Z,8.30
2023-05-18T08:53:01.011Z,7.30
2023-05-18T08:54:01.014Z,8.40
2023-05-18T08:55:01.011Z,7.50
2023-05-18T08:56:01.002Z,6.60
2023-05-18T08:57:00.997Z,8.50
2023-05-18T08:58:00.997Z,8.20
2023-05-18T08:59:01.006Z,7.70
2023-05-18T09:00:00.991Z,8.30
2023-05-18T09:01:00.978Z,7.40
2023-05-18T09:02:01.175Z,7.60
2023-05-18T09:03:00.998Z,8.10
2023-05-18T09:04:00.994Z,7.80
2023-05-18T09:05:00.989Z,7.80
2023-05-18T09:06:00.975Z,8.00
2023-05-18T09:07:00.966Z,7.30
2023-05-18T09:08:00.965Z,8.50
2023-05-18T09:09:00.953Z,8.00
2023-05-18T09:10:00.978Z,7.60
2023-05-18T09:11:00.960Z,10.10
2023-05-18T09:12:00.945Z,6.50
2023-05-18T09:13:00.946Z,7.30
2023-05-18T09:14:00.943Z,7.60
2023-05-18T09:15:00.969Z,7.60
2023-05-18T09:16:01.001Z,8.80
2023-05-18T09:17:00.924Z,7.60
2023-05-18T09:18:00.981Z,8.80
2023-05-18T09:19:01.004Z,8.20
2023-05-18T09:20:01.478Z,8.20
2023-05-18T09:21:00.914Z,6.80
2023-05-18T09:22:00.931Z,7.50
2023-05-18T09:23:00.919Z,8.70
2023-05-18T09:24:00.910Z,8.30
2023-05-18T09:25:00.906Z,7.20
2023-05-18T09:26:00.906Z,7.80
2023-05-18T09:27:00.903Z,8.20
2023-05-18T09:28:00.899Z,8.50
2023-05-18T09:29:00.891Z,7.10
2023-05-18T09:30:00.893Z,8.40
2023-05-18T09:31:00.923Z,8.90
2023-05-18T09:32:00.937Z,7.40
2023-05-18T09:33:00.989Z,8.70
2023-05-18T09:34:01.014Z,8.00
2023-05-18T09:35:00.880Z,7.90
2023-05-18T09:36:00.870Z,7.70
2023-05-18T09:37:00.869Z,7.20
2023-05-18T09:38:00.872Z,6.40
2023-05-18T09:39:00.866Z,6.80
2023-05-18T09:40:00.896Z,7.90
2023-05-18T09:41:00.863Z,8.60
2023-05-18T09:42:00.861Z,8.20
2023-05-18T09:43:00.851Z,8.50
2023-05-18T09:44:00.848Z,7.30
2023-05-18T09:45:00.839Z,7.70
2023-05-18T09:46:00.839Z,8.60
2023-05-18T09:47:00.928Z,8.60
2023-05-18T09:48:00.856Z,7.40
2023-05-18T09:49:00.832Z,10.40
2023-05-18T09:50:00.827Z,7.80
2023-05-18T09:51:00.821Z,7.20
2023-05-18T09:52:00.839Z,7.80
2023-05-18T09:53:00.814Z,7.20
2023-05-18T09:54:00.823Z,9.40
2023-05-18T09:55:00.819Z,7.80
2023-05-18T09:56:00.817Z,7.00
2023-05-18T09:57:09.551Z,7.80
2023-05-18T09:58:00.804Z,9.90
2023-05-18T09:59:00.828Z,8.60
2023-05-18T10:00:00.807Z,7.90
2023-05-18T10:01:00.817Z,7.00
2023-05-18T10:02:00.800Z,8.20
2023-05-18T10:03:00.823Z,9.40
2023-05-18T10:04:00.802Z,7.90
2023-05-18T10:05:00.785Z,8.50
2023-05-18T10:06:00.779Z,8.00
2023-05-18T10:07:00.777Z,8.80
2023-05-18T10:08:00.777Z,8.30
2023-05-18T10:09:00.768Z,7.70
2023-05-18T10:10:00.769Z,7.10
2023-05-18T10:11:00.809Z,7.00
2023-05-18T10:12:00.765Z,7.40
2023-05-18T10:13:00.757Z,7.10
2023-05-18T10:14:00.756Z,7.40
2023-05-18T10:15:00.752Z,8.10
2023-05-18T10:16:00.766Z,7.40
2023-05-18T10:17:14.322Z,7.00
2023-05-18T10:18:00.750Z,6.90
2023-05-18T10:19:00.808Z,6.30
2023-05-18T10:20:00.738Z,7.50
2023-05-18T10:21:00.798Z,8.40
2023-05-18T10:22:00.735Z,7.10
2023-05-18T10:23:00.733Z,9.50
2023-05-18T10:24:00.739Z,8.00
2023-05-18T10:25:01.024Z,8.00
2023-05-18T10:26:00.724Z,9.80
2023-05-18T10:27:00.720Z,8.00
2023-05-18T10:28:00.719Z,8.50
2023-05-18T10:29:00.720Z,8.50
2023-05-18T10:30:00.715Z,8.30
2023-05-18T10:31:00.840Z,6.80
2023-05-18T10:32:02.606Z,6.40
2023-05-18T10:33:00.718Z,9.50
2023-05-18T10:34:00.699Z,7.10
2023-05-18T10:35:00.756Z,7.60
2023-05-18T10:36:00.695Z,8.20
2023-05-18T10:37:00.689Z,7.00
2023-05-18T10:38:00.698Z,8.30
2023-05-18T10:39:00.705Z,8.30
2023-05-18T10:40:00.685Z,6.90
2023-05-18T10:41:00.693Z,9.50
2023-05-18T10:42:00.684Z,9.50
2023-05-18T10:43:00.672Z,8.20
2023-05-18T10:44:00.671Z,8.50
2023-05-18T10:45:00.668Z,9.00
2023-05-18T10:46:00.731Z,9.80
2023-05-18T10:47:00.730Z,8.40
2023-05-18T10:48:00.719Z,8.80
2023-05-18T10:49:00.663Z,8.00
2023-05-18T10:50:00.677Z,9.50
2023-05-18T10:51:00.675Z,8.50
2023-05-18T10:52:00.651Z,8.00
2023-05-18T10:53:00.654Z,7.40
2023-05-18T10:54:00.645Z,7.50
2023-05-18T10:55:00.643Z,8.40
2023-05-18T10:56:00.642Z,8.20
2023-05-18T10:57:00.650Z,7.10
2023-05-18T10:58:00.635Z,6.70
2023-05-18T10:59:00.632Z,8.50
2023-05-18T11:00:00.647Z,8.80
2023-05-18T11:01:00.626Z,7.70
2023-05-18T11:02:00.694Z,9.40
2023-05-18T11:03:00.669Z,9.20
2023-05-18T11:04:00.616Z,9.10
2023-05-18T11:05:00.698Z,7.50
2023-05-18T11:06:00.608Z,7.10
2023-05-18T11:07:00.680Z,8.00
2023-05-18T11:08:00.608Z,7.50
2023-05-18T11:09:00.611Z,10.00
2023-05-18T11:10:00.612Z,7.90
2023-05-18T11:11:00.619Z,8.90
2023-05-18T11:12:00.591Z,8.40
2023-05-18T11:13:00.589Z,9.10
2023-05-18T11:14:00.609Z,10.00
2023-05-18T11:15:00.586Z,7.80
2023-05-18T11:16:00.683Z,8.60
2023-05-18T11:17:00.573Z,7.70
2023-05-18T11:18:00.607Z,9.30
2023-05-18T11:19:00.577Z,9.00
2023-05-18T11:20:00.568Z,9.70
2023-05-18T11:21:00.562Z,8.70
2023-05-18T11:22:00.563Z,8.30
2023-05-18T11:23:00.587Z,11.10
2023-05-18T11:24:00.556Z,8.10
2023-05-18T11:25:00.699Z,11.00
2023-05-18T11:26:00.548Z,7.20
2023-05-18T11:27:00.555Z,11.30
2023-05-18T11:28:00.552Z,13.70
2023-05-18T11:29:00.550Z,19.00
2023-05-18T11:30:14.644Z,10.90
2023-05-18T11:31:00.541Z,11.70
2023-05-18T11:32:01.278Z,8.60
2023-05-18T11:33:00.654Z,16.90
2023-05-18T11:34:00.535Z,8.40
2023-05-18T11:35:00.532Z,11.60
2023-05-18T11:36:00.526Z,10.10
2023-05-18T11:37:00.547Z,14.90
2023-05-18T11:38:00.521Z,17.50
2023-05-18T11:39:00.540Z,17.40
2023-05-18T11:40:02.786Z,18.60
2023-05-18T11:41:00.507Z,18.60
2023-05-18T11:42:00.506Z,16.70
2023-05-18T11:43:00.505Z,19.90
2023-05-18T11:44:00.509Z,20.20
2023-05-18T11:45:00.501Z,18.40
2023-05-18T11:46:00.496Z,19.90
2023-05-18T11:47:00.494Z,21.00
2023-05-18T11:48:00.562Z,19.60
2023-05-18T11:49:00.512Z,22.70
2023-05-18T11:50:00.527Z,20.20
2023-05-18T11:51:00.503Z,22.30
2023-05-18T11:52:00.482Z,19.20
2023-05-18T11:53:00.480Z,16.50
2023-05-18T11:54:00.472Z,12.70
2023-05-18T11:55:00.494Z,19.50
2023-05-18T11:56:00.469Z,18.50
2023-05-18T11:57:00.470Z,18.80
2023-05-18T11:58:00.469Z,20.90
2023-05-18T11:59:00.460Z,17.20
2023-05-18T12:00:00.467Z,16.60
2023-05-18T12:01:00.461Z,18.90
2023-05-18T12:02:00.486Z,16.50
2023-05-18T12:03:00.518Z,19.40
2023-05-18T12:04:00.482Z,20.40
2023-05-18T12:05:00.454Z,16.70
2023-05-18T12:06:00.450Z,20.90
2023-05-18T12:07:00.444Z,18.90
2023-05-18T12:08:00.449Z,19.60
2023-05-18T12:09:01.023Z,19.10
2023-05-18T12:10:00.437Z,13.80
2023-05-18T12:11:00.456Z,19.30
2023-05-18T12:12:00.426Z,20.90
2023-05-18T12:13:00.421Z,17.40
2023-05-18T12:14:00.418Z,20.20
2023-05-18T12:15:00.417Z,19.90
2023-05-18T12:16:00.420Z,14.40
2023-05-18T12:17:00.436Z,16.40
2023-05-18T12:18:00.441Z,13.90
2023-05-18T12:19:00.446Z,17.60
2023-05-18T12:20:00.415Z,14.20
2023-05-18T12:21:00.407Z,13.00
2023-05-18T12:22:00.414Z,13.30
2023-05-18T12:23:00.398Z,9.40
2023-05-18T12:24:00.399Z,10.60
2023-05-18T12:25:00.600Z,10.70
2023-05-18T12:26:00.410Z,12.10
2023-05-18T12:27:00.527Z,15.30
2023-05-18T12:28:00.403Z,16.40
2023-05-18T12:29:00.385Z,14.40
2023-05-18T12:30:00.380Z,13.10
2023-05-18T12:31:00.484Z,13.40
2023-05-18T12:32:00.375Z,10.70
2023-05-18T12:33:00.401Z,13.90
2023-05-18T12:34:00.371Z,13.60
2023-05-18T12:35:00.369Z,12.00
2023-05-18T12:36:00.372Z,14.20
2023-05-18T12:37:00.364Z,11.70
2023-05-18T12:38:00.504Z,12.20
2023-05-18T12:39:00.362Z,9.20
2023-05-18T12:40:00.356Z,14.50
2023-05-18T12:41:00.365Z,13.80
2023-05-18T12:42:00.356Z,13.20
2023-05-18T12:43:00.369Z,14.50
2023-05-18T12:44:00.343Z,12.00
2023-05-18T12:45:00.349Z,12.50
2023-05-18T12:46:00.381Z,13.70
2023-05-18T12:47:00.360Z,14.60
2023-05-18T12:48:00.394Z,13.30
2023-05-18T12:49:00.335Z,13.10
2023-05-18T12:50:00.332Z,11.90
2023-05-18T12:51:00.340Z,12.80
2023-05-18T12:52:00.329Z,15.10
2023-05-18T12:53:00.331Z,12.40
2023-05-18T12:54:00.330Z,14.50
2023-05-18T12:55:00.318Z,13.60
2023-05-18T12:56:00.318Z,12.80
2023-05-18T12:57:02.236Z,14.40
2023-05-18T12:58:00.316Z,8.20
2023-05-18T12:59:00.338Z,10.90
2023-05-18T13:00:00.321Z,9.10
2023-05-18T13:01:00.306Z,12.40
2023-05-18T13:02:00.440Z,11.20
2023-05-18T13:03:00.346Z,12.10